createdAt,value
2018-09-22T00:01:23.643Z,14.40
2018-09-22T00:03:51.865Z,14.70
2018-09-22T00:13:44.158Z,14.80
2018-09-22T00:16:12.485Z,14.60
2018-09-22T00:18:40.706Z,14.50
2018-09-22T00:21:08.981Z,14.60
2018-09-22T00:23:38.074Z,14.70
2018-09-22T00:26:06.538Z,14.60
2018-09-22T00:31:02.736Z,14.80
2018-09-22T00:33:30.970Z,14.90
2018-09-22T00:35:59.298Z,15.00
2018-09-22T00:38:27.667Z,14.90
2018-09-22T00:40:56.007Z,14.70
2018-09-22T00:45:52.274Z,14.70
2018-09-22T00:48:20.742Z,14.70
2018-09-22T00:50:48.959Z,14.90
2018-09-22T00:53:17.415Z,15.10
2018-09-22T00:55:45.689Z,14.90
2018-09-22T00:58:13.885Z,15.10
2018-09-22T01:00:42.144Z,14.90
2018-09-22T01:03:10.397Z,14.80
2018-09-22T01:05:38.653Z,14.90
2018-09-22T01:08:06.858Z,15.30
2018-09-22T01:10:35.086Z,15.30
2018-09-22T01:13:03.302Z,15.20
2018-09-22T01:15:31.644Z,14.80
2018-09-22T01:17:59.904Z,14.90
2018-09-22T01:20:28.114Z,14.80
2018-09-22T01:22:56.333Z,15.00
2018-09-22T01:25:24.550Z,14.90
2018-09-22T01:27:52.758Z,15.00
2018-09-22T01:30:20.955Z,14.90
2018-09-22T01:32:49.219Z,14.90
2018-09-22T01:35:17.514Z,14.80
2018-09-22T01:37:45.838Z,14.90
2018-09-22T01:40:14.056Z,15.00
2018-09-22T01:42:42.294Z,15.40
2018-09-22T01:45:10.490Z,15.50
2018-09-22T01:47:38.693Z,15.30
2018-09-22T01:50:06.989Z,15.50
2018-09-22T01:55:03.350Z,15.60
2018-09-22T01:57:31.578Z,15.50
2018-09-22T01:59:59.786Z,15.40
2018-09-22T02:07:24.077Z,15.20
2018-09-22T02:09:52.330Z,15.30
2018-09-22T02:12:20.609Z,15.40
2018-09-22T02:14:48.948Z,15.30
2018-09-22T02:17:17.160Z,15.50
2018-09-22T02:19:45.653Z,15.40
2018-09-22T02:22:13.842Z,15.40
2018-09-22T02:24:42.118Z,15.40
2018-09-22T02:27:10.393Z,15.50
2018-09-22T02:32:06.683Z,15.60
2018-09-22T02:34:34.888Z,15.60
2018-09-22T02:37:03.263Z,15.40
2018-09-22T02:39:31.531Z,15.20
2018-09-22T02:41:59.747Z,15.10
2018-09-22T02:44:27.988Z,15.00
2018-09-22T02:46:56.256Z,15.40
2018-09-22T02:51:52.544Z,15.50
2018-09-22T02:54:20.927Z,16.00
2018-09-22T02:56:49.230Z,15.30
2018-09-22T03:01:45.534Z,15.50
2018-09-22T03:04:13.756Z,15.60
2018-09-22T03:09:11.172Z,16.00
2018-09-22T03:14:07.920Z,16.00
2018-09-22T03:16:36.458Z,15.90
2018-09-22T03:19:04.749Z,16.10
2018-09-22T03:21:32.957Z,16.00
2018-09-22T03:24:01.270Z,15.80
2018-09-22T03:28:57.746Z,16.00
2018-09-22T03:31:25.991Z,15.70
2018-09-22T03:33:54.195Z,15.70
2018-09-22T03:38:50.461Z,15.40
2018-09-22T03:41:18.721Z,15.50
2018-09-22T03:43:47.179Z,15.70
2018-09-22T03:46:15.511Z,15.50
2018-09-22T03:48:43.718Z,15.50
2018-09-22T03:51:11.961Z,15.20
2018-09-22T03:53:40.241Z,15.20
2018-09-22T03:58:36.567Z,15.10
2018-09-22T04:01:04.798Z,15.00
2018-09-22T04:03:33.001Z,15.20
2018-09-22T04:06:01.212Z,15.20
2018-09-22T04:10:57.509Z,15.30
2018-09-22T04:15:53.734Z,15.00
2018-09-22T04:18:21.981Z,14.90
2018-09-22T04:20:50.266Z,14.90
2018-09-22T04:23:18.470Z,15.00
2018-09-22T04:25:46.722Z,15.00
2018-09-22T04:28:15.053Z,15.30
2018-09-22T04:30:43.315Z,15.30
2018-09-22T04:33:11.621Z,15.40
2018-09-22T04:38:07.998Z,15.10
2018-09-22T04:45:32.445Z,15.40
2018-09-22T04:48:00.700Z,15.30
2018-09-22T04:50:28.997Z,15.20
2018-09-22T04:52:57.353Z,15.10
2018-09-22T04:55:25.609Z,15.00
2018-09-22T04:57:53.807Z,14.90
2018-09-22T05:00:22.061Z,14.70
2018-09-22T05:02:50.337Z,14.90
2018-09-22T05:05:18.553Z,14.80
2018-09-22T05:07:46.771Z,15.00
2018-09-22T05:12:43.033Z,14.90
2018-09-22T05:15:11.361Z,15.20
2018-09-22T05:17:39.577Z,15.30
2018-09-22T05:20:07.866Z,15.40
2018-09-22T05:22:36.137Z,15.10
2018-09-22T05:25:04.362Z,15.10
2018-09-22T05:27:33.034Z,15.10
2018-09-22T05:30:01.268Z,15.40
2018-09-22T05:32:29.547Z,15.20
2018-09-22T05:34:57.818Z,15.00
2018-09-22T05:37:26.062Z,15.00
2018-09-22T05:42:22.326Z,14.70
2018-09-22T05:44:50.622Z,14.80
2018-09-22T05:47:18.837Z,14.60
2018-09-22T05:49:47.077Z,14.50
2018-09-22T05:52:15.336Z,14.60
2018-09-22T05:54:43.595Z,14.60
2018-09-22T05:59:39.861Z,14.70
2018-09-22T06:02:08.105Z,14.90
2018-09-22T06:04:36.330Z,14.80
2018-09-22T06:07:04.635Z,14.90
2018-09-22T06:09:33.130Z,15.10
2018-09-22T06:12:01.305Z,15.10
2018-09-22T06:14:29.604Z,15.30
2018-09-22T06:16:57.890Z,15.10
2018-09-22T06:19:26.162Z,15.00
2018-09-22T06:24:22.392Z,15.00
2018-09-22T06:26:50.610Z,15.10
2018-09-22T06:29:18.857Z,15.20
2018-09-22T06:34:15.127Z,14.90
2018-09-22T06:36:43.379Z,15.10
2018-09-22T06:39:12.394Z,15.10
2018-09-22T06:41:41.204Z,15.10
2018-09-22T06:44:09.861Z,15.30
2018-09-22T06:46:38.123Z,15.40
2018-09-22T06:49:06.350Z,15.40
2018-09-22T06:51:34.626Z,15.20
2018-09-22T06:54:02.855Z,15.20
2018-09-22T06:56:31.114Z,15.40
2018-09-22T06:58:59.502Z,15.40
2018-09-22T07:01:27.769Z,15.50
2018-09-22T07:11:20.188Z,16.10
2018-09-22T07:13:48.520Z,16.20
2018-09-22T07:16:16.761Z,16.50
2018-09-22T07:18:45.028Z,16.20
2018-09-22T07:21:13.293Z,16.10
2018-09-22T07:23:41.514Z,16.30
2018-09-22T07:26:09.730Z,15.80
2018-09-22T07:28:37.998Z,15.60
2018-09-22T07:31:06.329Z,15.90
2018-09-22T07:33:34.580Z,16.00
2018-09-22T07:36:02.843Z,16.30
2018-09-22T07:38:31.241Z,16.20
2018-09-22T07:40:59.520Z,16.50
2018-09-22T07:43:27.743Z,16.50
2018-09-22T07:48:24.262Z,16.30
2018-09-22T07:50:52.621Z,16.20
2018-09-22T07:55:48.846Z,16.60
2018-09-22T08:03:13.123Z,16.20
2018-09-22T08:05:41.448Z,15.90
2018-09-22T08:08:09.801Z,15.90
2018-09-22T08:10:38.064Z,16.00
2018-09-22T08:13:06.661Z,16.10
2018-09-22T08:15:34.885Z,16.40
2018-09-22T08:18:03.166Z,16.20
2018-09-22T08:20:31.529Z,16.30
2018-09-22T08:22:59.854Z,16.50
2018-09-22T08:25:28.105Z,16.30
2018-09-22T08:27:56.317Z,16.40
2018-09-22T08:30:24.583Z,16.40
2018-09-22T08:32:53.003Z,17.00
2018-09-22T08:35:21.301Z,17.00
2018-09-22T08:37:49.514Z,17.10
2018-09-22T08:40:17.776Z,16.90
2018-09-22T08:42:46.112Z,17.00
2018-09-22T08:45:14.522Z,17.10
2018-09-22T08:47:42.800Z,17.60
2018-09-22T08:50:11.120Z,18.20
2018-09-22T08:52:39.264Z,18.40
2018-09-22T08:55:07.609Z,19.10
2018-09-22T08:57:35.865Z,19.10
2018-09-22T09:00:04.130Z,18.10
2018-09-22T09:02:32.406Z,17.70
2018-09-22T09:05:00.642Z,17.50
2018-09-22T09:07:29.037Z,17.30
2018-09-22T09:09:57.265Z,17.10
2018-09-22T09:12:25.604Z,17.40
2018-09-22T09:14:53.861Z,17.70
2018-09-22T09:17:22.116Z,18.00
2018-09-22T09:19:50.458Z,17.80
2018-09-22T09:22:18.737Z,17.50
2018-09-22T09:24:46.958Z,17.40
2018-09-22T09:27:15.370Z,17.80
2018-09-22T09:29:43.595Z,17.80
2018-09-22T09:32:13.098Z,18.20
2018-09-22T09:34:41.450Z,18.40
2018-09-22T09:37:09.642Z,18.60
2018-09-22T09:39:37.944Z,18.50
2018-09-22T09:42:06.153Z,18.30
2018-09-22T09:44:34.430Z,18.70
2018-09-22T09:47:02.678Z,19.80
2018-09-22T09:49:30.913Z,19.70
2018-09-22T09:51:59.178Z,19.10
2018-09-22T09:54:27.464Z,19.10
2018-09-22T09:56:55.730Z,19.00
2018-09-22T09:59:23.942Z,18.60
2018-09-22T10:01:52.160Z,18.50
2018-09-22T10:04:20.398Z,18.50
2018-09-22T10:06:48.593Z,18.80
2018-09-22T10:09:16.873Z,19.70
2018-09-22T10:11:45.137Z,19.70
2018-09-22T10:14:13.358Z,19.60
2018-09-22T10:19:11.139Z,19.80
2018-09-22T10:21:39.497Z,20.10
2018-09-22T10:24:07.729Z,19.60
2018-09-22T10:26:36.054Z,19.10
2018-09-22T10:36:28.237Z,18.30
2018-09-22T10:46:20.493Z,18.50
2018-09-22T10:53:44.854Z,18.10
2018-09-22T10:58:41.150Z,17.40
2018-09-22T11:01:09.414Z,16.90
2018-09-22T11:03:37.718Z,16.80
2018-09-22T11:06:06.107Z,16.70
2018-09-22T11:08:34.390Z,16.50
2018-09-22T11:11:02.647Z,16.80
2018-09-22T11:13:31.046Z,16.90
2018-09-22T11:15:59.272Z,16.80
2018-09-22T11:18:27.518Z,17.20
2018-09-22T11:20:55.791Z,17.10
2018-09-22T11:23:24.047Z,16.80
2018-09-22T11:25:52.254Z,16.20
2018-09-22T11:28:20.513Z,15.90
2018-09-22T11:30:48.729Z,15.90
2018-09-22T11:33:17.753Z,15.10
2018-09-22T11:38:14.028Z,15.10
2018-09-22T11:43:10.308Z,14.90
2018-09-22T11:50:35.118Z,14.80
2018-09-22T11:53:03.622Z,14.70
2018-09-22T11:55:31.885Z,14.50
2018-09-22T12:00:28.168Z,14.70
2018-09-22T12:02:56.386Z,14.80
2018-09-22T12:05:24.594Z,14.70
2018-09-22T12:10:21.531Z,14.70
2018-09-22T12:12:49.791Z,14.50
2018-09-22T12:15:18.076Z,14.50
2018-09-22T12:20:14.329Z,14.40
2018-09-22T12:30:06.904Z,14.60
2018-09-22T12:32:35.156Z,14.40
2018-09-22T12:35:03.368Z,14.30
2018-09-22T12:37:31.688Z,14.00
2018-09-22T12:39:59.953Z,14.00
2018-09-22T12:42:28.250Z,14.00
2018-09-22T12:44:56.493Z,14.30
2018-09-22T12:47:24.727Z,14.40
2018-09-22T12:49:53.002Z,14.40
2018-09-22T12:52:21.273Z,14.30
2018-09-22T12:54:49.602Z,14.40
2018-09-22T12:57:17.881Z,14.50
2018-09-22T13:02:14.211Z,14.40
2018-09-22T13:04:42.582Z,14.50
2018-09-22T13:09:38.946Z,15.20
2018-09-22T13:12:07.262Z,15.00
2018-09-22T13:14:35.550Z,14.90
2018-09-22T13:19:31.929Z,14.60
2018-09-22T13:22:00.171Z,14.40
2018-09-22T13:26:56.486Z,14.60
2018-09-22T13:29:24.690Z,14.10
2018-09-22T13:31:53.110Z,14.10
2018-09-22T13:34:21.334Z,14.40
2018-09-22T13:36:49.578Z,14.30
2018-09-22T13:39:17.837Z,14.40
2018-09-22T13:41:46.130Z,14.40
2018-09-22T13:44:14.362Z,14.50
2018-09-22T13:46:42.597Z,14.50
2018-09-22T13:49:10.833Z,14.70
2018-09-22T13:51:39.084Z,14.70
2018-09-22T13:54:07.389Z,15.00
2018-09-22T13:56:35.722Z,15.10
2018-09-22T13:59:03.968Z,15.00
2018-09-22T14:01:32.303Z,15.20
2018-09-22T14:04:00.646Z,15.30
2018-09-22T14:06:29.048Z,15.50
2018-09-22T14:08:57.454Z,15.10
2018-09-22T14:11:26.046Z,15.30
2018-09-22T14:13:54.473Z,15.00
2018-09-22T14:23:47.274Z,15.30
2018-09-22T14:26:15.489Z,15.20
2018-09-22T14:28:43.766Z,15.10
2018-09-22T14:31:12.045Z,15.40
2018-09-22T14:36:08.316Z,15.50
2018-09-22T14:46:00.885Z,15.40
2018-09-22T14:50:57.214Z,15.50
2018-09-22T14:53:25.591Z,15.50
2018-09-22T14:55:53.889Z,15.70
2018-09-22T14:58:22.141Z,15.70
2018-09-22T15:18:06.955Z,15.50
2018-09-22T15:23:03.226Z,15.10
2018-09-22T15:27:59.560Z,14.60
2018-09-22T15:30:27.837Z,14.60
2018-09-22T15:32:56.713Z,14.30
2018-09-22T15:35:25.019Z,14.20
2018-09-22T15:40:21.297Z,14.60
2018-09-22T15:45:17.545Z,14.60
2018-09-22T15:52:41.828Z,14.30
2018-09-22T15:57:38.118Z,14.30
2018-09-22T16:00:06.968Z,14.40
2018-09-22T16:02:35.275Z,14.60
2018-09-22T16:05:03.606Z,14.70
2018-09-22T16:10:00.222Z,14.40
2018-09-22T16:14:56.494Z,14.60
2018-09-22T16:17:24.770Z,14.60
2018-09-22T16:19:53.096Z,14.40
2018-09-22T16:22:28.206Z,14.40
2018-09-22T16:24:56.455Z,14.60
2018-09-22T16:27:24.841Z,14.80
2018-09-22T16:29:53.061Z,14.50
2018-09-22T16:32:21.436Z,14.50
2018-09-22T16:34:49.724Z,14.70
2018-09-22T16:42:14.086Z,14.40
2018-09-22T16:47:10.363Z,14.20
2018-09-22T16:49:38.681Z,14.10
2018-09-22T16:52:06.854Z,14.50
2018-09-22T16:54:35.105Z,14.10
2018-09-22T17:01:59.437Z,14.10
2018-09-22T17:04:27.678Z,14.00
2018-09-22T17:06:55.954Z,14.30
2018-09-22T17:14:20.333Z,14.10
2018-09-22T17:21:44.783Z,14.50
2018-09-22T17:24:13.037Z,14.40
2018-09-22T17:26:41.342Z,14.40
2018-09-22T17:29:09.743Z,14.50
2018-09-22T17:34:06.093Z,14.30
2018-09-22T17:43:58.804Z,14.60
2018-09-22T17:46:27.072Z,14.50
2018-09-22T17:48:55.337Z,14.70
2018-09-22T17:51:23.658Z,14.50
2018-09-22T18:01:16.229Z,14.30
2018-09-22T18:03:44.538Z,14.50
2018-09-22T18:08:41.186Z,14.50
2018-09-22T18:16:05.506Z,14.10
2018-09-22T18:21:02.254Z,14.30
2018-09-22T18:23:30.459Z,14.30
2018-09-22T18:25:58.681Z,14.40
2018-09-22T18:28:27.082Z,14.20
2018-09-22T18:30:55.314Z,14.20
2018-09-22T18:33:23.963Z,14.30
2018-09-22T18:35:52.233Z,14.10
2018-09-22T18:38:20.491Z,14.20
2018-09-22T18:40:48.766Z,14.40
2018-09-22T18:43:17.041Z,14.10
2018-09-22T18:50:41.505Z,13.90
2018-09-22T18:55:37.886Z,13.90
2018-09-22T18:58:06.393Z,14.10
2018-09-22T19:00:34.721Z,14.00
2018-09-22T19:05:31.074Z,14.00
2018-09-22T19:07:59.502Z,13.70
2018-09-22T19:12:56.619Z,13.90
2018-09-22T19:15:35.789Z,14.10
2018-09-22T19:18:14.248Z,14.10
2018-09-22T19:20:46.023Z,14.20
2018-09-22T19:25:51.117Z,14.30
2018-09-22T19:28:24.830Z,14.30
2018-09-22T19:38:42.644Z,14.10
2018-09-22T19:44:20.130Z,14.30
2018-09-22T19:46:54.292Z,14.30
2018-09-22T19:55:21.898Z,14.00
2018-09-22T20:00:18.244Z,14.60
2018-09-22T20:05:14.689Z,14.40
2018-09-22T20:07:43.042Z,14.50
2018-09-22T20:12:39.294Z,14.30
2018-09-22T20:15:07.550Z,14.20
2018-09-22T20:17:35.905Z,14.30
2018-09-22T20:20:04.176Z,14.00
2018-09-22T20:22:32.454Z,14.30
2018-09-22T20:29:56.754Z,14.10
2018-09-22T20:32:25.864Z,14.00
2018-09-22T20:34:54.198Z,14.20
2018-09-22T20:37:22.503Z,14.20
2018-09-22T20:42:18.888Z,14.00
2018-09-22T20:44:47.144Z,14.00
2018-09-22T20:47:15.366Z,13.90
2018-09-22T20:54:39.614Z,14.30
2018-09-22T21:02:04.005Z,14.20
2018-09-22T21:07:00.434Z,14.10
2018-09-22T21:09:28.744Z,14.30
2018-09-22T21:14:25.386Z,13.90
2018-09-22T21:19:21.642Z,14.30
2018-09-22T21:24:17.924Z,14.00
2018-09-22T21:26:46.184Z,14.00
2018-09-22T21:29:14.524Z,13.80
2018-09-22T21:36:39.761Z,14.10
2018-09-22T21:39:08.974Z,14.00
2018-09-22T21:41:37.261Z,14.10
2018-09-22T21:46:33.660Z,14.30
2018-09-22T21:49:02.012Z,14.00
2018-09-22T21:53:58.258Z,14.00
2018-09-22T21:56:26.540Z,14.00
2018-09-22T21:58:54.773Z,13.90
2018-09-22T22:01:28.567Z,13.80
2018-09-22T22:08:53.146Z,13.90
2018-09-22T22:13:49.730Z,13.50
2018-09-22T22:16:18.070Z,13.80
2018-09-22T22:18:46.403Z,14.00
2018-09-22T22:21:14.716Z,14.00
2018-09-22T22:26:10.965Z,13.90
2018-09-22T22:28:39.224Z,13.80
2018-09-22T22:31:07.499Z,13.80
2018-09-22T22:38:32.001Z,13.30
2018-09-22T22:41:00.307Z,13.30
2018-09-22T22:43:28.561Z,13.70
2018-09-22T22:50:52.805Z,13.60
2018-09-22T22:53:21.060Z,13.80
2018-09-22T22:55:49.648Z,13.50
2018-09-22T22:58:17.867Z,13.60
2018-09-22T23:03:14.124Z,13.50
2018-09-22T23:10:38.362Z,13.20
2018-09-22T23:13:06.842Z,13.50
2018-09-22T23:15:35.061Z,13.30
2018-09-22T23:18:03.558Z,13.50
2018-09-22T23:20:31.814Z,13.40
2018-09-22T23:23:00.045Z,13.50
2018-09-22T23:25:28.292Z,13.90
2018-09-22T23:27:56.494Z,13.80
2018-09-22T23:30:24.714Z,13.60
2018-09-22T23:32:53.081Z,13.90
2018-09-22T23:35:21.389Z,13.90
2018-09-22T23:37:49.597Z,13.80
2018-09-22T23:40:17.835Z,14.00
2018-09-22T23:42:46.060Z,13.90
2018-09-22T23:45:14.284Z,13.60
2018-09-22T23:50:10.501Z,13.50
2018-09-22T23:52:38.727Z,13.90
2018-09-22T23:55:07.006Z,14.00
2018-09-22T23:57:35.285Z,13.80
